Time;durP1;ratioP1;P1;durP2;ratioP2;P2;SDS_P1;SDS_P2;PMS_P1;PMS_P2;Temp;Humidity;BMP_temperature;BMP_pressure;BME280_temperature;BME280_humidity;BME280_pressure;Samples;Min_cycle;Max_cycle;Signal;HPM_P1;HPM_P2
2021/03/22 00:01:40;;;;;;;32.08;4.57;;;2.60;90.70;;;;;;4992985;28;20046;-67
2021/03/22 00:04:07;;;;;;;29.95;4.68;;;2.60;90.90;;;;;;4999543;28;20481;-67
2021/03/22 00:06:33;;;;;;;27.40;4.38;;;2.60;90.90;;;;;;5001599;28;20545;-67
2021/03/22 00:08:58;;;;;;;36.47;4.13;;;2.60;91.10;;;;;;4998945;28;20030;-67
2021/03/22 00:11:24;;;;;;;26.40;3.90;;;2.50;91.00;;;;;;4994339;28;20514;-67
2021/03/22 00:13:50;;;;;;;20.38;4.07;;;2.40;91.20;;;;;;4999292;28;20022;-69
2021/03/22 00:16:16;;;;;;;34.22;4.78;;;2.50;91.30;;;;;;5000491;28;20348;-67
2021/03/22 00:18:42;;;;;;;23.70;3.85;;;2.50;91.60;;;;;;4994702;28;20077;-67
2021/03/22 00:21:10;;;;;;;36.75;4.72;;;2.40;91.50;;;;;;4998311;28;20034;-68
2021/03/22 00:23:35;;;;;;;23.27;4.93;;;2.40;91.50;;;;;;5001774;28;20391;-68
2021/03/22 00:26:01;;;;;;;26.67;3.85;;;2.40;91.80;;;;;;5001164;28;20037;-68
2021/03/22 00:28:27;;;;;;;21.38;4.05;;;2.40;91.60;;;;;;5002504;28;20038;-67
2021/03/22 00:30:54;;;;;;;29.85;4.85;;;2.30;91.60;;;;;;5004032;28;20061;-68
2021/03/22 00:33:21;;;;;;;36.95;4.97;;;2.30;91.80;;;;;;5003604;28;20042;-67
2021/03/22 00:35:47;;;;;;;25.60;4.85;;;2.30;92.10;;;;;;5004048;28;20034;-68
2021/03/22 00:38:14;;;;;;;35.63;3.75;;;2.30;91.80;;;;;;5005544;28;20033;-68
2021/03/22 00:40:43;;;;;;;34.38;4.70;;;2.20;92.00;;;;;;4997826;28;20030;-68
2021/03/22 00:43:09;;;;;;;30.52;4.32;;;2.20;92.20;;;;;;5002795;28;20021;-67
2021/03/22 00:45:35;;;;;;;27.08;4.50;;;2.20;92.20;;;;;;4998971;28;20038;-68
2021/03/22 00:48:01;;;;;;;29.63;4.78;;;2.20;92.40;;;;;;5002419;28;20091;-68
2021/03/22 00:50:36;;;;;;;25.38;3.78;;;2.10;92.20;;;;;;5004294;28;20034;-69
2021/03/22 00:53:04;;;;;;;33.55;4.45;;;2.20;92.50;;;;;;5001908;28;20022;-69
2021/03/22 00:55:30;;;;;;;39.28;5.72;;;2.10;92.60;;;;;;5002460;28;20045;-67
2021/03/22 00:57:56;;;;;;;23.23;4.18;;;2.20;92.70;;;;;;5003728;28;20401;-67
2021/03/22 01:00:34;;;;;;;33.38;5.40;;;2.20;92.70;;;;;;5005262;28;20038;-68
2021/03/22 01:03:00;;;;;;;24.63;4.57;;;2.10;92.60;;;;;;5001963;28;20036;-69
2021/03/22 01:05:29;;;;;;;31.77;4.20;;;2.10;92.60;;;;;;4999312;28;20030;-68
2021/03/22 01:07:55;;;;;;;33.33;5.05;;;2.10;92.80;;;;;;4999374;28;20715;-69
2021/03/22 01:10:26;;;;;;;38.50;5.22;;;2.10;92.90;;;;;;4997487;28;20034;-70
2021/03/22 01:12:52;;;;;;;33.88;4.32;;;2.10;92.90;;;;;;5004546;28;20104;-66
2021/03/22 01:15:18;;;;;;;28.98;4.70;;;2.10;93.00;;;;;;5000193;28;20022;-69
2021/03/22 01:17:44;;;;;;;32.63;5.05;;;2.00;93.00;;;;;;4996083;28;20021;-67
2021/03/22 01:20:17;;;;;;;43.60;5.22;;;2.00;93.10;;;;;;5004796;28;20478;-67
2021/03/22 01:22:42;;;;;;;41.13;4.80;;;2.00;93.40;;;;;;5000707;28;20097;-67
2021/03/22 01:25:09;;;;;;;31.27;4.72;;;2.10;93.60;;;;;;5001888;28;20021;-71
2021/03/22 01:27:38;;;;;;;22.98;4.15;;;2.00;93.50;;;;;;5002347;28;20037;-68
2021/03/22 01:30:20;;;;;;;37.20;5.50;;;2.00;93.50;;;;;;5000138;28;20208;-68
2021/03/22 01:32:47;;;;;;;33.88;4.80;;;2.00;93.40;;;;;;4994706;28;20029;-67
2021/03/22 01:35:13;;;;;;;32.85;5.18;;;2.00;93.60;;;;;;4984276;28;20034;-69
2021/03/22 01:37:40;;;;;;;27.40;5.22;;;2.00;93.60;;;;;;4983370;28;20088;-69
2021/03/22 01:40:35;;;;;;;34.83;5.18;;;1.90;93.50;;;;;;4986287;28;20141;-68
2021/03/22 01:43:07;;;;;;;40.70;5.18;;;1.90;93.60;;;;;;4977353;28;20081;-70
2021/03/22 01:45:32;;;;;;;31.02;5.28;;;2.00;93.90;;;;;;4985820;28;20041;-69
2021/03/22 01:47:58;;;;;;;31.17;5.00;;;1.90;93.80;;;;;;4984198;28;20084;-69
2021/03/22 01:50:29;;;;;;;29.30;5.28;;;1.90;93.80;;;;;;4984504;28;20041;-70
2021/03/22 01:52:57;;;;;;;48.72;5.68;;;2.00;93.90;;;;;;4984439;28;20501;-70
2021/03/22 01:55:25;;;;;;;32.08;5.43;;;2.00;93.90;;;;;;4985831;28;20512;-67
2021/03/22 01:57:51;;;;;;;38.70;5.57;;;2.00;93.70;;;;;;4985411;28;20132;-67
2021/03/22 02:00:37;;;;;;;30.90;5.00;;;2.00;93.70;;;;;;4984013;28;21907;-67
2021/03/22 02:03:09;;;;;;;26.85;5.20;;;2.00;93.60;;;;;;4985789;28;20120;-70
2021/03/22 02:05:38;;;;;;;33.83;6.47;;;2.00;93.60;;;;;;4987538;28;20022;-68
2021/03/22 02:08:04;;;;;;;43.28;6.82;;;2.10;93.70;;;;;;4986487;28;20686;-70
2021/03/22 02:10:30;;;;;;;42.10;5.78;;;2.10;93.60;;;;;;4985949;28;20084;-67
2021/03/22 02:12:56;;;;;;;36.40;6.07;;;2.20;93.40;;;;;;4984899;28;20026;-68
2021/03/22 02:15:22;;;;;;;49.13;6.70;;;2.20;93.20;;;;;;4986083;28;20502;-67
2021/03/22 02:18:03;;;;;;;30.73;5.93;;;2.20;93.20;;;;;;4990713;28;20026;-69
2021/03/22 02:20:51;;;;;;;36.63;5.80;;;2.30;93.20;;;;;;4985228;28;20487;-69
2021/03/22 02:23:32;;;;;;;34.28;6.63;;;2.30;93.20;;;;;;4985395;28;20088;-67
2021/03/22 02:26:04;;;;;;;33.72;5.32;;;2.30;93.10;;;;;;5006655;28;20026;-68
2021/03/22 02:28:32;;;;;;;25.85;5.35;;;2.40;93.20;;;;;;5001531;28;20482;-67
2021/03/22 02:31:26;;;;;;;32.92;5.50;;;2.50;93.10;;;;;;5001655;28;20494;-67
2021/03/22 02:34:06;;;;;;;31.88;5.20;;;2.50;93.00;;;;;;5003833;28;20021;-69
2021/03/22 02:36:45;;;;;;;33.75;6.22;;;2.60;92.90;;;;;;5003060;28;20037;-68
2021/03/22 02:39:10;;;;;;;28.45;5.63;;;2.60;92.80;;;;;;4996896;28;20475;-66
2021/03/22 02:41:54;;;;;;;19.90;5.05;;;2.70;92.40;;;;;;5003989;28;20080;-68
2021/03/22 02:44:28;;;;;;;26.70;5.15;;;2.70;92.20;;;;;;4996770;28;20038;-67
2021/03/22 02:47:07;;;;;;;27.10;5.60;;;2.80;92.10;;;;;;5004781;28;20080;-69
2021/03/22 02:49:39;;;;;;;27.50;4.97;;;2.90;91.70;;;;;;5000522;28;20033;-69
2021/03/22 02:52:14;;;;;;;33.35;5.55;;;2.90;91.80;;;;;;5001950;28;20426;-68
2021/03/22 02:54:44;;;;;;;25.52;4.65;;;3.00;91.40;;;;;;5003455;28;20026;-68
2021/03/22 02:57:26;;;;;;;30.95;5.68;;;3.10;91.40;;;;;;5005555;28;20051;-67
2021/03/22 02:59:58;;;;;;;26.42;5.40;;;3.10;91.50;;;;;;4998020;28;20064;-68
2021/03/22 03:02:26;;;;;;;24.73;5.22;;;3.10;91.40;;;;;;5003080;28;20030;-68
2021/03/22 03:04:53;;;;;;;24.50;5.35;;;3.10;91.30;;;;;;5004004;28;20487;-68
2021/03/22 03:07:22;;;;;;;24.67;5.97;;;3.10;91.00;;;;;;4992688;28;20060;-68
2021/03/22 03:09:48;;;;;;;29.02;4.88;;;3.10;90.80;;;;;;4998522;28;20425;-67
2021/03/22 03:12:25;;;;;;;22.45;4.80;;;3.20;90.70;;;;;;5007046;28;20021;-68
2021/03/22 03:14:56;;;;;;;20.38;4.78;;;3.20;90.70;;;;;;5004063;28;20530;-69
2021/03/22 03:17:23;;;;;;;30.77;5.30;;;3.30;90.40;;;;;;4991818;28;20153;-68
2021/03/22 03:19:50;;;;;;;29.20;5.22;;;3.30;90.20;;;;;;4984326;28;20029;-70
2021/03/22 03:22:16;;;;;;;18.83;4.70;;;3.30;90.20;;;;;;5006524;28;20030;-68
2021/03/22 03:24:42;;;;;;;23.02;4.97;;;3.30;90.40;;;;;;5005577;28;20033;-67
2021/03/22 03:27:09;;;;;;;22.05;5.00;;;3.30;90.40;;;;;;4998169;28;20096;-68
2021/03/22 03:29:36;;;;;;;23.08;5.90;;;3.30;90.30;;;;;;5005205;28;20034;-69
2021/03/22 03:32:03;;;;;;;20.17;5.00;;;3.30;90.30;;;;;;5005121;28;20038;-68
2021/03/22 03:34:28;;;;;;;24.25;5.38;;;3.30;90.50;;;;;;5005048;28;20030;-68
2021/03/22 03:36:54;;;;;;;21.17;5.40;;;3.30;90.50;;;;;;4984747;28;20041;-68
2021/03/22 03:39:20;;;;;;;18.67;4.63;;;3.30;90.50;;;;;;5004873;28;20037;-69
2021/03/22 03:41:45;;;;;;;20.13;5.35;;;3.30;90.40;;;;;;5006496;28;20482;-69
2021/03/22 03:44:12;;;;;;;21.00;4.65;;;3.30;90.30;;;;;;5002931;28;20330;-69
2021/03/22 03:46:38;;;;;;;22.42;5.43;;;3.30;90.40;;;;;;4992557;28;20100;-68
2021/03/22 03:49:04;;;;;;;28.50;5.60;;;3.30;90.10;;;;;;5003623;28;20026;-69
2021/03/22 03:51:35;;;;;;;22.50;5.03;;;3.30;90.10;;;;;;5006471;28;20022;-69
2021/03/22 03:54:01;;;;;;;;;;;3.40;90.30;;;;;;5003398;28;20068;-68
2021/03/22 03:56:27;;;;;;;20.42;5.53;;;3.30;90.30;;;;;;5004465;28;20325;-69
2021/03/22 03:58:56;;;;;;;22.90;5.25;;;3.40;90.30;;;;;;5004268;28;20463;-68
2021/03/22 04:01:22;;;;;;;20.17;5.68;;;3.40;90.40;;;;;;5008762;28;20061;-69
2021/03/22 04:03:48;;;;;;;21.35;4.90;;;3.40;90.30;;;;;;5007363;28;20061;-68
2021/03/22 04:06:23;;;;;;;23.90;5.20;;;3.40;90.30;;;;;;5003840;28;20045;-68
2021/03/22 04:09:07;;;;;;;28.42;5.28;;;3.40;90.30;;;;;;5004052;28;20094;-68
2021/03/22 04:11:38;;;;;;;24.80;5.38;;;3.40;90.20;;;;;;5004535;28;20025;-68
2021/03/22 04:14:06;;;;;;;26.55;5.18;;;3.40;90.10;;;;;;5009079;28;20080;-69
2021/03/22 04:16:33;;;;;;;25.05;5.63;;;3.40;90.10;;;;;;5010132;28;20061;-70
2021/03/22 04:18:59;;;;;;;20.00;5.40;;;3.40;90.00;;;;;;5003034;28;20029;-68
2021/03/22 04:21:28;;;;;;;28.30;5.70;;;3.40;89.90;;;;;;5006038;28;20410;-68
2021/03/22 04:23:55;;;;;;;21.48;5.93;;;3.40;89.60;;;;;;5008694;28;20038;-68
2021/03/22 04:26:21;;;;;;;20.58;4.97;;;3.40;89.70;;;;;;5004910;28;20040;-68
2021/03/22 04:28:47;;;;;;;18.55;5.45;;;3.40;89.40;;;;;;5004399;28;20510;-69
2021/03/22 04:31:17;;;;;;;16.77;5.20;;;3.40;89.30;;;;;;4997428;28;20033;-68
2021/03/22 04:33:44;;;;;;;21.17;5.83;;;3.30;89.30;;;;;;5002335;28;20475;-68
2021/03/22 04:36:11;;;;;;;19.67;5.18;;;3.30;89.40;;;;;;5007603;28;20265;-68
2021/03/22 04:38:37;;;;;;;34.53;6.22;;;3.20;89.70;;;;;;5008084;28;20037;-68
2021/03/22 04:41:03;;;;;;;18.65;5.00;;;3.20;89.90;;;;;;5004906;28;20034;-68
2021/03/22 04:43:29;;;;;;;19.42;5.47;;;3.20;89.90;;;;;;5009231;28;20406;-68
2021/03/22 04:45:55;;;;;;;29.85;5.50;;;3.20;89.80;;;;;;5009198;28;20091;-67
2021/03/22 04:48:20;;;;;;;19.15;5.05;;;3.20;89.60;;;;;;4998121;28;20038;-68
2021/03/22 04:50:46;;;;;;;22.85;4.60;;;3.20;89.70;;;;;;5004913;28;20189;-69
2021/03/22 04:53:12;;;;;;;22.35;4.70;;;3.10;89.60;;;;;;5007520;28;20112;-68
2021/03/22 04:55:38;;;;;;;20.30;4.70;;;3.10;89.50;;;;;;5006951;28;20561;-67
2021/03/22 04:58:04;;;;;;;18.42;4.50;;;3.10;89.70;;;;;;5003055;28;20032;-69
2021/03/22 05:00:33;;;;;;;23.77;5.30;;;3.10;89.70;;;;;;5006887;28;20414;-68
2021/03/22 05:02:59;;;;;;;21.15;5.07;;;3.00;89.70;;;;;;4991517;28;20491;-69
2021/03/22 05:05:26;;;;;;;23.67;5.15;;;3.00;89.60;;;;;;4997817;28;20045;-68
2021/03/22 05:07:53;;;;;;;17.83;4.65;;;3.10;89.40;;;;;;5010060;28;20041;-69
2021/03/22 05:10:22;;;;;;;25.15;5.00;;;3.00;89.40;;;;;;5003920;28;20038;-68
2021/03/22 05:12:48;;;;;;;21.63;5.13;;;3.00;89.40;;;;;;5003110;28;20029;-69
2021/03/22 05:15:14;;;;;;;18.55;4.63;;;3.00;89.40;;;;;;5006329;28;20509;-69
2021/03/22 05:17:40;;;;;;;17.95;4.78;;;3.00;89.10;;;;;;5006008;28;20036;-69
2021/03/22 05:20:10;;;;;;;15.13;4.20;;;3.00;89.00;;;;;;5006371;28;20038;-68
2021/03/22 05:22:35;;;;;;;18.13;4.60;;;3.10;88.80;;;;;;5002539;28;20126;-68
2021/03/22 05:25:01;;;;;;;22.38;4.93;;;3.10;88.70;;;;;;5005787;28;20045;-68
2021/03/22 05:27:26;;;;;;;16.88;4.78;;;3.00;88.80;;;;;;4999567;28;20098;-67
2021/03/22 05:29:52;;;;;;;20.08;4.68;;;3.10;89.00;;;;;;4986457;28;20510;-68
2021/03/22 05:32:31;;;;;;;23.83;5.32;;;3.10;88.90;;;;;;5006876;28;20022;-68
2021/03/22 05:34:57;;;;;;;21.88;5.15;;;3.00;89.20;;;;;;5002590;28;20536;-68
2021/03/22 05:37:23;;;;;;;17.45;4.63;;;3.00;89.20;;;;;;5007936;28;20686;-67
2021/03/22 05:39:49;;;;;;;22.40;5.38;;;3.00;89.40;;;;;;5003520;28;20022;-68
2021/03/22 05:42:40;;;;;;;16.05;4.90;;;2.90;89.60;;;;;;5007434;28;20032;-68
2021/03/22 05:45:30;;;;;;;19.67;4.90;;;2.90;89.70;;;;;;5005351;28;20025;-68
2021/03/22 05:48:14;;;;;;;19.27;4.95;;;2.80;89.70;;;;;;4971501;28;20407;-68
2021/03/22 05:50:58;;;;;;;17.65;4.68;;;2.90;89.70;;;;;;5003913;28;20034;-68
2021/03/22 05:53:44;;;;;;;16.92;3.90;;;3.00;89.20;;;;;;5002105;28;20474;-67
2021/03/22 05:56:35;;;;;;;17.02;4.43;;;3.10;89.00;;;;;;5001593;28;20034;-69
2021/03/22 05:59:16;;;;;;;17.10;4.15;;;3.10;88.90;;;;;;5004667;28;20029;-68
2021/03/22 06:01:46;;;;;;;17.48;4.97;;;3.20;88.80;;;;;;4999487;28;20212;-68
2021/03/22 06:04:36;;;;;;;25.50;4.50;;;3.20;88.60;;;;;;5002351;28;20022;-67
2021/03/22 06:07:04;;;;;;;14.10;4.28;;;3.30;88.30;;;;;;5000040;28;20030;-68
2021/03/22 06:09:40;;;;;;;22.75;4.25;;;3.30;88.50;;;;;;4998794;28;20057;-68
2021/03/22 06:12:28;;;;;;;12.85;3.88;;;3.30;88.60;;;;;;5007798;28;20105;-67
2021/03/22 06:15:21;;;;;;;13.70;4.35;;;3.40;88.40;;;;;;5001193;28;20567;-68
2021/03/22 06:18:03;;;;;;;15.93;3.55;;;3.50;88.30;;;;;;4990757;28;20057;-67
2021/03/22 06:20:37;;;;;;;14.30;4.10;;;3.50;88.10;;;;;;5001104;28;20080;-67
2021/03/22 06:23:12;;;;;;;14.57;4.43;;;3.50;88.20;;;;;;4998381;28;20031;-67
2021/03/22 06:25:38;;;;;;;20.52;4.43;;;3.50;87.60;;;;;;4992077;28;20038;-67
2021/03/22 06:28:26;;;;;;;23.95;5.22;;;3.60;87.80;;;;;;5003645;28;20026;-68
2021/03/22 06:31:14;;;;;;;22.05;4.55;;;3.70;87.60;;;;;;5007111;28;20091;-68
2021/03/22 06:33:49;;;;;;;16.60;3.58;;;3.70;87.30;;;;;;5001942;28;20045;-68
2021/03/22 06:36:23;;;;;;;15.88;4.72;;;3.80;87.30;;;;;;4999273;28;20026;-67
2021/03/22 06:38:54;;;;;;;19.10;4.45;;;3.80;87.20;;;;;;5001824;28;20065;-68
2021/03/22 06:41:51;;;;;;;15.40;4.47;;;3.90;86.70;;;;;;5001639;28;20093;-68
2021/03/22 06:44:38;;;;;;;18.60;4.63;;;3.90;86.30;;;;;;5004722;28;20595;-67
2021/03/22 06:47:12;;;;;;;15.50;4.32;;;4.10;86.70;;;;;;5002538;28;20045;-67
2021/03/22 06:49:48;;;;;;;13.80;4.07;;;4.10;86.10;;;;;;4997200;28;20033;-68
2021/03/22 06:52:35;;;;;;;16.67;4.38;;;4.20;85.80;;;;;;5004026;28;20064;-68
2021/03/22 06:55:27;;;;;;;11.23;3.63;;;4.20;85.90;;;;;;4998411;28;20026;-66
2021/03/22 06:57:52;;;;;;;;;;;4.30;85.60;;;;;;5000678;28;20029;-68
2021/03/22 07:00:20;;;;;;;17.70;4.22;;;4.50;85.80;;;;;;5004126;28;19959;-68
2021/03/22 07:02:54;;;;;;;10.48;3.63;;;4.50;85.20;;;;;;5002176;28;20034;-67
2021/03/22 07:05:24;;;;;;;13.65;3.70;;;4.60;85.40;;;;;;5004476;28;20041;-67
2021/03/22 07:08:01;;;;;;;19.27;4.63;;;4.60;85.20;;;;;;5003238;28;20487;-67
2021/03/22 07:10:31;;;;;;;17.90;4.63;;;5.00;85.80;;;;;;5001013;28;20044;-68
2021/03/22 07:13:04;;;;;;;13.15;4.18;;;4.90;83.40;;;;;;5004350;28;20022;-69
2021/03/22 07:15:36;;;;;;;17.27;4.22;;;4.90;83.60;;;;;;5000118;28;20062;-68
2021/03/22 07:18:25;;;;;;;13.52;3.60;;;4.90;82.90;;;;;;5003754;28;20032;-68
2021/03/22 07:20:59;;;;;;;18.60;4.07;;;4.80;82.90;;;;;;4984312;28;20116;-68
2021/03/22 07:23:26;;;;;;;16.95;4.15;;;4.80;83.40;;;;;;4982644;28;20751;-68
2021/03/22 07:25:54;;;;;;;15.70;4.25;;;4.90;83.90;;;;;;4983709;28;20030;-68
2021/03/22 07:28:35;;;;;;;12.15;3.97;;;4.90;82.90;;;;;;4983442;28;20029;-67
2021/03/22 07:31:26;;;;;;;16.40;3.97;;;4.80;83.20;;;;;;4986761;28;20517;-67
2021/03/22 07:34:18;;;;;;;12.07;4.40;;;4.80;83.50;;;;;;4985972;28;20096;-67
2021/03/22 07:37:20;;;;;;;14.73;4.15;;;4.80;83.00;;;;;;4983735;28;20040;-68
2021/03/22 07:40:06;;;;;;;16.15;4.55;;;4.80;82.50;;;;;;4982984;28;20358;-67
2021/03/22 07:43:03;;;;;;;22.77;5.40;;;4.90;83.30;;;;;;4974332;28;20443;-68
2021/03/22 07:45:41;;;;;;;14.57;5.53;;;4.60;83.50;;;;;;4984034;28;20499;-68
2021/03/22 07:48:36;;;;;;;17.45;5.47;;;4.60;83.60;;;;;;4982050;28;20042;-67
2021/03/22 07:51:29;;;;;;;21.85;6.03;;;4.60;83.90;;;;;;4990052;28;20076;-66
2021/03/22 07:54:27;;;;;;;14.98;5.50;;;4.80;83.90;;;;;;4999544;28;20101;-67
2021/03/22 07:57:26;;;;;;;19.58;5.72;;;4.90;82.80;;;;;;5001250;28;20074;-67
2021/03/22 08:00:16;;;;;;;18.27;5.55;;;5.30;82.80;;;;;;5003612;28;20029;-67
2021/03/22 08:03:19;;;;;;;17.83;5.88;;;5.60;81.40;;;;;;5003058;28;20055;-68
2021/03/22 08:06:07;;;;;;;13.57;6.28;;;5.80;81.00;;;;;;5004150;28;20076;-68
2021/03/22 08:08:47;;;;;;;21.25;6.20;;;5.90;80.80;;;;;;5001644;28;20025;-67
2021/03/22 08:11:52;;;;;;;15.88;6.20;;;5.80;80.80;;;;;;4999248;28;20030;-67
2021/03/22 08:14:32;;;;;;;15.70;5.85;;;5.90;80.60;;;;;;5000579;28;20029;-67
2021/03/22 08:17:31;;;;;;;13.30;5.95;;;5.90;80.30;;;;;;5001705;28;20049;-67
2021/03/22 08:20:15;;;;;;;20.15;5.95;;;6.00;79.70;;;;;;4997981;28;20025;-67
2021/03/22 08:22:44;;;;;;;15.27;5.20;;;6.30;79.30;;;;;;5000427;28;20026;-68
2021/03/22 08:25:36;;;;;;;12.52;4.95;;;6.80;79.90;;;;;;4999649;28;20030;-67
2021/03/22 08:28:31;;;;;;;12.20;5.05;;;6.70;76.80;;;;;;5001415;28;20037;-67
2021/03/22 08:31:12;;;;;;;19.10;4.97;;;6.80;77.40;;;;;;5005359;28;20042;-67
2021/03/22 08:33:38;;;;;;;;;;;6.70;78.00;;;;;;4999276;28;20080;-67
2021/03/22 08:36:14;;;;;;;11.93;4.18;;;6.30;78.90;;;;;;4999827;28;19913;-67
2021/03/22 08:38:52;;;;;;;14.52;4.88;;;6.20;79.10;;;;;;4996396;28;20592;-68
2021/03/22 08:41:42;;;;;;;14.15;5.05;;;6.20;80.20;;;;;;4996135;28;20380;-68
2021/03/22 08:44:43;;;;;;;15.57;5.17;;;6.70;79.00;;;;;;4997366;28;20022;-68
2021/03/22 08:47:32;;;;;;;12.70;4.38;;;6.80;79.40;;;;;;4965024;28;20311;-68
2021/03/22 08:50:00;;;;;;;9.50;3.65;;;6.50;78.70;;;;;;5008207;28;20032;-68
2021/03/22 08:52:33;;;;;;;13.27;4.03;;;6.70;79.20;;;;;;5001236;28;20029;-69
2021/03/22 08:55:20;;;;;;;11.88;4.30;;;6.30;78.70;;;;;;5003757;28;20742;-68
2021/03/22 08:58:01;;;;;;;17.73;4.60;;;6.40;78.80;;;;;;5001559;28;20266;-67
2021/03/22 09:00:38;;;;;;;15.10;4.57;;;6.50;78.40;;;;;;5005000;28;20040;-68
2021/03/22 09:03:16;;;;;;;10.38;3.78;;;6.50;78.60;;;;;;5007025;28;20375;-68
2021/03/22 09:06:09;;;;;;;16.30;4.50;;;6.60;79.00;;;;;;5003727;28;20121;-68
2021/03/22 09:08:40;;;;;;;16.02;4.53;;;6.40;78.00;;;;;;4999716;28;20081;-68
2021/03/22 09:11:30;;;;;;;13.23;3.92;;;6.50;79.60;;;;;;5008456;28;20025;-69
2021/03/22 09:14:01;;;;;;;9.57;3.70;;;6.50;79.60;;;;;;4995577;28;20116;-67
2021/03/22 09:16:37;;;;;;;17.95;4.28;;;7.10;78.60;;;;;;4985864;28;20026;-68
2021/03/22 09:19:13;;;;;;;10.43;3.20;;;7.80;75.90;;;;;;4988485;28;20038;-69
2021/03/22 09:21:53;;;;;;;10.18;3.13;;;8.00;75.10;;;;;;4986766;28;20452;-66
2021/03/22 09:24:40;;;;;;;16.77;3.70;;;8.10;74.00;;;;;;4987618;28;20101;-66
2021/03/22 09:27:15;;;;;;;12.20;3.67;;;8.80;74.10;;;;;;4984572;28;20455;-68
2021/03/22 09:29:41;;;;;;;13.13;3.20;;;8.90;71.90;;;;;;5004718;28;20092;-67
2021/03/22 09:32:32;;;;;;;10.50;3.42;;;9.10;70.60;;;;;;4998807;28;20387;-68
2021/03/22 09:34:58;;;;;;;10.53;3.23;;;9.50;69.30;;;;;;4999808;28;20048;-68
2021/03/22 09:37:42;;;;;;;11.80;3.60;;;9.10;68.50;;;;;;5005489;28;20286;-65
2021/03/22 09:40:11;;;;;;;10.65;3.30;;;8.10;71.40;;;;;;4996984;28;20075;-68
2021/03/22 09:42:36;;;;;;;15.57;3.05;;;8.20;71.50;;;;;;4999462;28;20370;-67
2021/03/22 09:45:12;;;;;;;9.15;3.47;;;7.80;70.60;;;;;;4996691;28;20030;-67
2021/03/22 09:47:40;;;;;;;10.10;2.60;;;8.20;71.60;;;;;;4982969;28;20022;-69
2021/03/22 09:50:09;;;;;;;11.30;3.13;;;8.40;70.10;;;;;;4984686;28;20026;-67
2021/03/22 09:52:38;;;;;;;12.07;3.25;;;8.70;70.10;;;;;;4986366;28;20191;-67
2021/03/22 09:55:26;;;;;;;13.32;3.00;;;9.10;67.80;;;;;;4983730;28;20135;-68
2021/03/22 09:57:54;;;;;;;10.48;2.83;;;9.60;67.20;;;;;;4981552;28;20120;-68
2021/03/22 10:00:52;;;;;;;8.27;2.60;;;9.30;66.60;;;;;;4981472;28;20034;-67
2021/03/22 10:03:38;;;;;;;7.53;3.05;;;9.10;64.50;;;;;;4987612;28;20093;-66
2021/03/22 10:06:12;;;;;;;6.47;2.63;;;9.20;64.70;;;;;;5001253;28;20028;-67
2021/03/22 10:08:41;;;;;;;7.95;2.72;;;9.40;64.70;;;;;;5003866;28;20053;-67
2021/03/22 10:11:36;;;;;;;10.98;2.53;;;9.50;64.50;;;;;;5002802;28;20036;-68
2021/03/22 10:14:04;;;;;;;8.20;2.33;;;9.60;63.70;;;;;;4998543;28;20026;-67
2021/03/22 10:16:35;;;;;;;10.82;3.25;;;9.60;63.40;;;;;;5003314;28;20093;-68
2021/03/22 10:19:05;;;;;;;;;;;9.80;62.50;;;;;;5004937;28;20383;-68
2021/03/22 10:21:52;;;;;;;12.03;3.00;;;9.60;63.90;;;;;;5003579;28;19964;-68
2021/03/22 10:24:51;;;;;;;7.78;2.70;;;10.10;62.30;;;;;;4998775;28;20045;-69
2021/03/22 10:27:35;;;;;;;10.27;2.90;;;11.30;62.20;;;;;;4999222;28;20030;-67
2021/03/22 10:30:08;;;;;;;8.38;3.47;;;10.60;59.80;;;;;;5002456;28;20207;-67
2021/03/22 10:32:35;;;;;;;8.10;2.90;;;9.70;62.40;;;;;;5002328;28;20402;-67
2021/03/22 10:35:16;;;;;;;10.25;2.85;;;9.30;64.50;;;;;;5005458;28;20021;-67
2021/03/22 10:37:43;;;;;;;;;;;9.20;64.60;;;;;;5005038;28;20644;-67
2021/03/22 10:40:19;;;;;;;9.43;2.60;;;9.10;64.40;;;;;;5002732;28;19917;-67
2021/03/22 10:42:44;;;;;;;6.25;2.70;;;9.10;64.00;;;;;;5001404;28;20575;-68
2021/03/22 10:45:29;;;;;;;7.57;2.80;;;9.70;62.10;;;;;;5000840;28;20148;-68
2021/03/22 10:47:57;;;;;;;7.45;2.30;;;10.20;60.20;;;;;;5004445;28;20033;-68
2021/03/22 10:50:25;;;;;;;8.20;2.20;;;10.60;58.80;;;;;;5003876;28;20056;-67
2021/03/22 10:53:04;;;;;;;8.77;3.08;;;10.50;58.40;;;;;;5000279;28;20037;-67
2021/03/22 10:55:30;;;;;;;9.32;2.90;;;9.80;59.90;;;;;;5004544;28;20026;-68
2021/03/22 10:57:58;;;;;;;6.47;2.50;;;10.00;60.00;;;;;;4999450;28;20026;-66
2021/03/22 11:00:31;;;;;;;11.25;2.80;;;10.40;58.70;;;;;;5002646;28;21011;-66
2021/03/22 11:02:59;;;;;;;8.25;3.17;;;10.20;61.30;;;;;;5007246;28;20033;-67
2021/03/22 11:05:30;;;;;;;7.55;2.47;;;10.60;60.30;;;;;;5005422;28;20462;-68
2021/03/22 11:08:03;;;;;;;7.97;2.70;;;10.60;60.30;;;;;;5006652;28;20030;-67
2021/03/22 11:10:30;;;;;;;6.90;2.70;;;10.00;59.30;;;;;;5004015;28;20041;-68
2021/03/22 11:12:56;;;;;;;6.32;2.40;;;10.00;59.70;;;;;;5007993;28;20172;-67
2021/03/22 11:15:35;;;;;;;5.82;2.35;;;9.30;59.20;;;;;;4999341;28;20453;-67
2021/03/22 11:18:05;;;;;;;9.13;2.53;;;9.80;57.60;;;;;;4999283;28;20025;-67
2021/03/22 11:20:32;;;;;;;7.18;2.38;;;10.30;61.10;;;;;;5003263;28;20062;-67
2021/03/22 11:23:25;;;;;;;9.60;3.47;;;10.20;60.70;;;;;;5004937;28;20513;-67
2021/03/22 11:25:52;;;;;;;7.70;2.85;;;9.70;61.90;;;;;;5003367;28;20388;-67
2021/03/22 11:28:20;;;;;;;8.40;2.58;;;9.40;61.90;;;;;;5017243;28;20419;-66
2021/03/22 11:30:49;;;;;;;7.57;2.40;;;9.90;61.20;;;;;;5005376;28;20309;-67
2021/03/22 11:33:17;;;;;;;5.80;1.95;;;9.60;61.70;;;;;;4988406;28;20077;-68
2021/03/22 11:35:46;;;;;;;9.70;2.67;;;9.90;61.30;;;;;;5004694;28;20037;-67
2021/03/22 11:38:24;;;;;;;8.38;2.42;;;9.60;62.60;;;;;;5003338;28;20513;-67
2021/03/22 11:40:50;;;;;;;9.85;2.70;;;10.40;62.20;;;;;;5001887;28;20037;-69
2021/03/22 11:43:28;;;;;;;5.15;2.22;;;11.00;57.90;;;;;;5006727;28;20364;-68
2021/03/22 11:45:54;;;;;;;9.40;2.70;;;11.10;58.20;;;;;;5001262;28;20371;-67
2021/03/22 11:48:19;;;;;;;7.10;2.50;;;10.80;58.70;;;;;;4997869;28;20030;-67
2021/03/22 11:50:48;;;;;;;7.53;2.40;;;10.60;58.70;;;;;;5000466;28;20092;-67
2021/03/22 11:53:18;;;;;;;8.07;2.03;;;10.50;60.50;;;;;;5004593;28;20092;-68
2021/03/22 11:55:52;;;;;;;6.55;1.80;;;10.80;59.10;;;;;;5002165;28;20054;-67
2021/03/22 11:58:40;;;;;;;7.82;2.10;;;9.80;61.80;;;;;;4998788;28;20548;-66
2021/03/22 12:01:26;;;;;;;6.20;2.05;;;10.00;63.50;;;;;;5003874;28;20101;-68
2021/03/22 12:04:04;;;;;;;8.32;2.00;;;10.10;62.60;;;;;;5001137;28;20034;-67
2021/03/22 12:06:32;;;;;;;3.60;1.65;;;10.90;59.50;;;;;;5000679;28;20566;-67
2021/03/22 12:08:58;;;;;;;4.50;1.58;;;10.70;59.20;;;;;;5004164;28;20034;-68
2021/03/22 12:11:30;;;;;;;7.70;1.98;;;10.80;59.40;;;;;;5005735;28;20041;-67
2021/03/22 12:13:59;;;;;;;4.93;1.35;;;10.60;61.10;;;;;;4997749;28;20116;-67
2021/03/22 12:16:34;;;;;;;6.07;1.73;;;10.70;60.30;;;;;;5001272;28;20030;-67
2021/03/22 12:19:06;;;;;;;5.72;1.70;;;10.30;60.80;;;;;;5000486;28;20058;-67
2021/03/22 12:21:32;;;;;;;7.50;1.73;;;10.00;62.60;;;;;;5005203;28;20041;-67
2021/03/22 12:24:00;;;;;;;5.25;1.73;;;9.90;63.90;;;;;;4999268;28;20453;-67
2021/03/22 12:26:28;;;;;;;5.60;1.60;;;9.30;64.30;;;;;;5001967;28;20066;-67
2021/03/22 12:28:54;;;;;;;6.50;1.52;;;9.50;64.90;;;;;;4980632;28;20038;-67
2021/03/22 12:31:22;;;;;;;7.75;1.92;;;9.40;64.00;;;;;;4992586;28;20533;-67
2021/03/22 12:33:48;;;;;;;9.30;2.00;;;9.20;67.20;;;;;;5001613;28;20050;-67
2021/03/22 12:36:14;;;;;;;6.65;1.83;;;9.10;69.80;;;;;;5008913;28;20061;-67
2021/03/22 12:38:40;;;;;;;5.20;1.60;;;9.10;69.10;;;;;;5002356;28;20430;-67
2021/03/22 12:41:06;;;;;;;6.70;1.98;;;9.30;69.50;;;;;;5003092;28;20042;-67
2021/03/22 12:43:34;;;;;;;11.05;1.88;;;9.40;68.40;;;;;;5006658;28;20026;-67
2021/03/22 12:46:00;;;;;;;7.28;1.52;;;9.30;69.30;;;;;;5008824;28;20036;-68
2021/03/22 12:48:26;;;;;;;7.57;1.50;;;9.30;67.80;;;;;;5008414;28;20509;-67
2021/03/22 12:50:51;;;;;;;6.45;1.80;;;8.80;69.10;;;;;;5005467;28;20050;-68
2021/03/22 12:53:17;;;;;;;6.80;1.70;;;8.80;69.10;;;;;;5007245;28;20022;-68
2021/03/22 12:55:44;;;;;;;8.35;1.80;;;9.00;68.70;;;;;;5001378;28;20022;-68
2021/03/22 12:58:20;;;;;;;4.20;1.45;;;8.80;69.20;;;;;;5001691;28;20061;-67
2021/03/22 13:00:47;;;;;;;6.85;1.58;;;8.70;68.60;;;;;;5008267;28;20564;-67
2021/03/22 13:03:16;;;;;;;6.20;1.65;;;8.90;68.20;;;;;;4986243;28;20041;-67
2021/03/22 13:05:41;;;;;;;7.15;1.40;;;8.80;67.40;;;;;;5004478;28;20038;-67
2021/03/22 13:08:07;;;;;;;7.28;1.45;;;8.60;67.80;;;;;;5003561;28;20513;-67
2021/03/22 13:10:34;;;;;;;5.75;1.38;;;8.50;69.70;;;;;;5001888;28;20033;-68
2021/03/22 13:13:01;;;;;;;7.05;1.90;;;8.40;70.80;;;;;;4999658;28;20105;-67
2021/03/22 13:15:32;;;;;;;5.20;1.60;;;8.40;70.80;;;;;;5000453;28;20034;-68
2021/03/22 13:17:58;;;;;;;9.48;2.05;;;8.40;71.10;;;;;;5000713;28;20476;-68
2021/03/22 13:20:25;;;;;;;4.57;1.48;;;8.10;72.00;;;;;;5002811;28;20422;-67
2021/03/22 13:22:51;;;;;;;4.97;1.90;;;8.40;71.30;;;;;;5004427;28;20072;-68